createdAt,value
2016-02-08T00:00:16.763Z,994.21
2016-02-08T00:01:16.784Z,994.18
2016-02-08T00:02:16.802Z,994.17
2016-02-08T00:03:16.820Z,994.17
2016-02-08T00:04:16.839Z,994.15
2016-02-08T00:05:16.859Z,994.19
2016-02-08T00:06:16.877Z,994.17
2016-02-08T00:07:16.896Z,994.16
2016-02-08T00:08:16.914Z,994.14
2016-02-08T00:09:16.932Z,994.14
2016-02-08T00:10:16.951Z,994.13
2016-02-08T00:11:16.969Z,994.13
2016-02-08T00:12:16.994Z,994.08
2016-02-08T00:13:17.011Z,994.06
2016-02-08T00:14:17.030Z,994.01
2016-02-08T00:15:17.064Z,994.01
2016-02-08T00:16:17.067Z,994.03
2016-02-08T00:17:17.086Z,993.99
2016-02-08T00:18:17.119Z,994
2016-02-08T00:19:17.124Z,993.98
2016-02-08T00:20:17.143Z,993.93
2016-02-08T00:21:17.176Z,993.93
2016-02-08T00:22:17.179Z,993.92
2016-02-08T00:23:17.213Z,993.89
2016-02-08T00:24:17.231Z,993.92
2016-02-08T00:25:17.249Z,993.89
2016-02-08T00:26:17.267Z,993.85
2016-02-08T00:27:17.288Z,993.86
2016-02-08T00:28:17.306Z,993.85
2016-02-08T00:29:17.324Z,993.87
2016-02-08T00:30:17.343Z,993.87
2016-02-08T00:31:17.361Z,993.83
2016-02-08T00:32:17.380Z,993.9
2016-02-08T00:33:17.397Z,993.87
2016-02-08T00:34:17.416Z,993.84
2016-02-08T00:35:17.454Z,993.83
2016-02-08T00:36:17.457Z,993.85
2016-02-08T00:37:17.475Z,993.81
2016-02-08T00:38:17.492Z,993.8
2016-02-08T00:39:17.512Z,993.77
2016-02-08T00:40:17.530Z,993.76
2016-02-08T00:41:17.549Z,993.73
2016-02-08T00:42:17.584Z,993.76
2016-02-08T00:43:17.597Z,993.79
2016-02-08T00:44:17.615Z,993.78
2016-02-08T00:45:17.634Z,993.74
2016-02-08T00:46:17.652Z,993.74
2016-02-08T00:47:17.670Z,993.66
2016-02-08T00:48:17.688Z,993.65
2016-02-08T00:49:17.706Z,993.64
2016-02-08T00:50:17.725Z,993.6
2016-02-08T00:51:17.759Z,993.62
2016-02-08T00:52:17.770Z,993.52
2016-02-08T00:53:17.788Z,993.53
2016-02-08T00:54:17.806Z,993.51
2016-02-08T00:55:17.825Z,993.5
2016-02-08T00:56:17.843Z,993.44
2016-02-08T00:57:17.862Z,993.47
2016-02-08T00:58:17.880Z,993.48
2016-02-08T00:59:17.900Z,993.46
2016-02-08T01:00:17.918Z,993.49
2016-02-08T01:01:17.935Z,993.5
2016-02-08T01:02:17.958Z,993.41
2016-02-08T01:03:17.976Z,993.44
2016-02-08T01:04:17.995Z,993.43
2016-02-08T01:05:18.013Z,993.45
2016-02-08T01:06:18.047Z,993.42
2016-02-08T01:07:18.050Z,993.41
2016-02-08T01:08:18.084Z,993.42
2016-02-08T01:09:18.103Z,993.41
2016-02-08T01:10:18.121Z,993.42
2016-02-08T01:11:18.126Z,993.42
2016-02-08T01:12:18.161Z,993.4
2016-02-08T01:13:18.164Z,993.37
2016-02-08T01:14:18.182Z,993.33
2016-02-08T01:15:18.216Z,993.34
2016-02-08T01:16:18.235Z,993.32
2016-02-08T01:17:18.254Z,993.31
2016-02-08T01:18:18.271Z,993.29
2016-02-08T01:19:18.290Z,993.3
2016-02-08T01:20:18.309Z,993.19
2016-02-08T01:21:18.327Z,993.23
2016-02-08T01:22:18.345Z,993.23
2016-02-08T01:23:18.364Z,993.23
2016-02-08T01:24:18.382Z,993.22
2016-02-08T01:25:18.401Z,993.2
2016-02-08T01:26:18.418Z,993.21
2016-02-08T01:27:18.438Z,993.23
2016-02-08T01:28:18.456Z,993.22
2016-02-08T01:29:18.474Z,993.21
2016-02-08T01:30:18.493Z,993.2
2016-02-08T01:31:18.511Z,993.18
2016-02-08T01:32:18.529Z,993.07
2016-02-08T01:33:18.548Z,993.07
2016-02-08T01:34:18.565Z,993.06
2016-02-08T01:35:18.584Z,993.01
2016-02-08T01:36:18.603Z,993.03
2016-02-08T01:37:18.622Z,993.02
2016-02-08T01:38:18.640Z,992.97
2016-02-08T01:39:18.658Z,992.99
2016-02-08T01:40:18.692Z,992.96
2016-02-08T01:41:18.706Z,992.97
2016-02-08T01:42:18.726Z,992.96
2016-02-08T01:43:18.744Z,993
2016-02-08T01:44:18.762Z,993.01
2016-02-08T01:45:18.782Z,992.99
2016-02-08T01:46:18.799Z,992.95
2016-02-08T01:47:18.819Z,992.98
2016-02-08T01:48:18.837Z,992.95
2016-02-08T01:49:18.854Z,992.91
2016-02-08T01:50:18.875Z,992.84
2016-02-08T01:51:18.894Z,992.85
2016-02-08T01:52:18.911Z,992.86
2016-02-08T01:53:18.930Z,992.8
2016-02-08T01:54:18.947Z,992.79
2016-02-08T01:55:18.966Z,992.81
2016-02-08T01:56:18.999Z,992.77
2016-02-08T01:57:19.002Z,992.75
2016-02-08T01:58:19.022Z,992.74
2016-02-08T01:59:19.040Z,992.67
2016-02-08T02:00:19.059Z,992.67
2016-02-08T02:01:19.077Z,992.62
2016-02-08T02:02:19.110Z,992.57
2016-02-08T02:03:19.117Z,992.53
2016-02-08T02:04:19.137Z,992.51
2016-02-08T02:05:19.154Z,992.49
2016-02-08T02:06:19.173Z,992.48
2016-02-08T02:07:19.190Z,992.43
2016-02-08T02:08:19.209Z,992.46
2016-02-08T02:09:19.233Z,992.46
2016-02-08T02:10:19.251Z,992.5
2016-02-08T02:11:19.270Z,992.44
2016-02-08T02:12:19.287Z,992.47
2016-02-08T02:13:19.306Z,992.42
2016-02-08T02:14:19.325Z,992.47
2016-02-08T02:15:19.342Z,992.45
2016-02-08T02:16:19.377Z,992.47
2016-02-08T02:17:19.380Z,992.48
2016-02-08T02:18:19.398Z,992.4
2016-02-08T02:19:19.416Z,992.42
2016-02-08T02:20:19.434Z,992.44
2016-02-08T02:21:19.453Z,992.36
2016-02-08T02:22:19.472Z,992.45
2016-02-08T02:23:19.489Z,992.42
2016-02-08T02:24:19.508Z,992.43
2016-02-08T02:25:19.528Z,992.37
2016-02-08T02:26:19.546Z,992.35
2016-02-08T02:27:19.579Z,992.35
2016-02-08T02:28:19.581Z,992.38
2016-02-08T02:29:19.600Z,992.32
2016-02-08T02:30:19.619Z,992.33
2016-02-08T02:31:19.637Z,992.32
2016-02-08T02:32:19.672Z,992.3
2016-02-08T02:33:19.690Z,992.32
2016-02-08T02:34:19.724Z,992.34
2016-02-08T02:35:19.711Z,992.27
2016-02-08T02:36:19.745Z,992.27
2016-02-08T02:37:19.748Z,992.27
2016-02-08T02:38:19.770Z,992.27
2016-02-08T02:39:19.787Z,992.24
2016-02-08T02:40:19.822Z,992.28
2016-02-08T02:41:19.828Z,992.24
2016-02-08T02:42:19.846Z,992.29
2016-02-08T02:43:19.865Z,992.22
2016-02-08T02:44:19.883Z,992.28
2016-02-08T02:45:19.901Z,992.27
2016-02-08T02:46:19.937Z,992.26
2016-02-08T02:47:19.940Z,992.24
2016-02-08T02:48:19.959Z,992.24
2016-02-08T02:49:19.976Z,992.2
2016-02-08T02:50:19.995Z,992.21
2016-02-08T02:51:20.013Z,992.16
2016-02-08T02:52:20.032Z,992.19
2016-02-08T02:53:20.082Z,992.25
2016-02-08T02:54:20.071Z,992.27
2016-02-08T02:55:20.089Z,992.23
2016-02-08T02:56:20.108Z,992.25
2016-02-08T02:57:20.126Z,992.25
2016-02-08T02:58:20.145Z,992.28
2016-02-08T02:59:20.163Z,992.25
2016-02-08T03:00:20.182Z,992.27
2016-02-08T03:01:20.200Z,992.22
2016-02-08T03:02:20.218Z,992.21
2016-02-08T03:03:20.237Z,992.21
2016-02-08T03:04:20.255Z,992.09
2016-02-08T03:05:20.274Z,992.15
2016-02-08T03:06:20.292Z,992.08
2016-02-08T03:07:20.325Z,992.01
2016-02-08T03:08:20.329Z,992.06
2016-02-08T03:09:20.347Z,992.03
2016-02-08T03:10:20.365Z,992.06
2016-02-08T03:11:20.384Z,992.03
2016-02-08T03:12:20.404Z,992.08
2016-02-08T03:13:20.422Z,992.06
2016-02-08T03:14:20.440Z,991.98
2016-02-08T03:15:20.458Z,992
2016-02-08T03:16:20.477Z,991.98
2016-02-08T03:17:20.510Z,991.99
2016-02-08T03:18:20.514Z,992
2016-02-08T03:19:20.548Z,991.94
2016-02-08T03:20:20.566Z,991.91
2016-02-08T03:21:20.573Z,991.9
2016-02-08T03:22:20.592Z,991.92
2016-02-08T03:23:20.610Z,991.88
2016-02-08T03:24:20.629Z,991.97
2016-02-08T03:25:20.648Z,991.88
2016-02-08T03:26:20.664Z,991.96
2016-02-08T03:27:20.683Z,991.91
2016-02-08T03:28:20.701Z,991.83
2016-02-08T03:29:20.721Z,991.88
2016-02-08T03:30:20.740Z,991.84
2016-02-08T03:31:20.774Z,991.84
2016-02-08T03:32:20.776Z,991.84
2016-02-08T03:33:20.794Z,991.81
2016-02-08T03:34:20.812Z,991.84
2016-02-08T03:35:20.831Z,991.82
2016-02-08T03:36:20.849Z,991.78
2016-02-08T03:37:20.868Z,991.77
2016-02-08T03:38:20.887Z,991.78
2016-02-08T03:39:20.904Z,991.78
2016-02-08T03:40:20.923Z,991.75
2016-02-08T03:41:20.941Z,991.77
2016-02-08T03:42:20.961Z,991.73
2016-02-08T03:43:20.979Z,991.72
2016-02-08T03:44:20.982Z,991.67
2016-02-08T03:45:21.016Z,991.66
2016-02-08T03:46:21.034Z,991.67
2016-02-08T03:47:21.052Z,991.66
2016-02-08T03:48:21.057Z,991.63
2016-02-08T03:49:21.075Z,991.6
2016-02-08T03:50:21.097Z,991.54
2016-02-08T03:51:21.117Z,991.6
2016-02-08T03:52:21.135Z,991.54
2016-02-08T03:53:21.169Z,991.49
2016-02-08T03:54:21.172Z,991.48
2016-02-08T03:55:21.189Z,991.41
2016-02-08T03:56:21.209Z,991.42
2016-02-08T03:57:21.228Z,991.41
2016-02-08T03:58:21.246Z,991.38
2016-02-08T03:59:21.280Z,991.36
2016-02-08T04:00:21.283Z,991.34
2016-02-08T04:01:21.301Z,991.3
2016-02-08T04:02:21.319Z,991.3
2016-02-08T04:03:21.337Z,991.24
2016-02-08T04:04:21.356Z,991.2
2016-02-08T04:05:21.374Z,991.16
2016-02-08T04:06:21.392Z,991.14
2016-02-08T04:07:21.410Z,991.15
2016-02-08T04:08:21.429Z,991.15
2016-02-08T04:09:21.448Z,991.1
2016-02-08T04:10:21.467Z,991.16
2016-02-08T04:11:21.484Z,991.11
2016-02-08T04:12:21.503Z,991.1
2016-02-08T04:13:21.524Z,991.04
2016-02-08T04:14:21.542Z,990.95
2016-02-08T04:15:21.560Z,991.01
2016-02-08T04:16:21.578Z,990.98
2016-02-08T04:17:21.598Z,990.96
2016-02-08T04:18:21.616Z,990.94
2016-02-08T04:19:21.634Z,990.92
2016-02-08T04:20:21.653Z,990.83
2016-02-08T04:21:21.671Z,990.8
2016-02-08T04:22:21.689Z,990.77
2016-02-08T04:23:21.708Z,990.86
2016-02-08T04:24:21.711Z,990.81
2016-02-08T04:25:21.730Z,990.77
2016-02-08T04:26:21.765Z,990.79
2016-02-08T04:27:21.768Z,990.74
2016-02-08T04:28:21.786Z,990.78
2016-02-08T04:29:21.804Z,990.73
2016-02-08T04:30:21.838Z,990.74
2016-02-08T04:31:21.841Z,990.73
2016-02-08T04:32:21.860Z,990.68
2016-02-08T04:33:21.878Z,990.66
2016-02-08T04:34:21.897Z,990.69
2016-02-08T04:35:21.916Z,990.72
2016-02-08T04:36:21.934Z,990.65
2016-02-08T04:37:21.952Z,990.55
2016-02-08T04:38:21.970Z,990.5
2016-02-08T04:39:21.989Z,990.46
2016-02-08T04:40:22.008Z,990.35
2016-02-08T04:41:22.026Z,990.34
2016-02-08T04:42:22.044Z,990.37
2016-02-08T04:43:22.066Z,990.31
2016-02-08T04:44:22.084Z,990.29
2016-02-08T04:45:22.102Z,990.3
2016-02-08T04:46:22.120Z,990.24
2016-02-08T04:47:22.138Z,990.23
2016-02-08T04:48:22.157Z,990.25
2016-02-08T04:49:22.175Z,990.19
2016-02-08T04:50:22.193Z,990.23
2016-02-08T04:51:22.196Z,990.22
2016-02-08T04:52:22.231Z,990.29
2016-02-08T04:53:22.265Z,990.22
2016-02-08T04:54:22.253Z,990.13
2016-02-08T04:55:22.286Z,990.21
2016-02-08T04:56:22.305Z,990.15
2016-02-08T04:57:22.308Z,990.12
2016-02-08T04:58:22.325Z,990.08
2016-02-08T04:59:22.344Z,990.1
2016-02-08T05:00:22.362Z,990.08
2016-02-08T05:01:22.380Z,990.07
2016-02-08T05:02:22.399Z,990.12
2016-02-08T05:03:22.416Z,990.12
2016-02-08T05:04:22.444Z,990.08
2016-02-08T05:05:22.466Z,990.1
2016-02-08T05:06:22.469Z,990.02
2016-02-08T05:07:22.488Z,990.05
2016-02-08T05:08:22.506Z,990.01
2016-02-08T05:09:22.524Z,990.01
2016-02-08T05:10:22.542Z,990.02
2016-02-08T05:11:22.560Z,990.02
2016-02-08T05:12:22.573Z,990.05
2016-02-08T05:13:22.607Z,990.07
2016-02-08T05:14:22.610Z,990.01
2016-02-08T05:15:22.628Z,989.97
2016-02-08T05:16:22.646Z,989.89
2016-02-08T05:17:22.680Z,989.92
2016-02-08T05:18:22.683Z,989.92
2016-02-08T05:19:22.703Z,989.88
2016-02-08T05:20:22.720Z,989.88
2016-02-08T05:21:22.740Z,989.89
2016-02-08T05:22:22.750Z,989.8
2016-02-08T05:23:22.759Z,989.72
2016-02-08T05:24:22.769Z,989.71
2016-02-08T05:25:22.778Z,989.64
2016-02-08T05:26:22.788Z,989.63
2016-02-08T05:27:22.803Z,989.59
2016-02-08T05:28:22.818Z,989.6
2016-02-08T05:29:22.833Z,989.6
2016-02-08T05:30:22.847Z,989.55
2016-02-08T05:31:22.863Z,989.56
2016-02-08T05:32:22.880Z,989.52
2016-02-08T05:33:22.896Z,989.53
2016-02-08T05:34:22.914Z,989.51
2016-02-08T05:35:22.931Z,989.57
2016-02-08T05:36:22.948Z,989.61
2016-02-08T05:37:22.966Z,989.56
2016-02-08T05:38:22.984Z,989.56
2016-02-08T05:39:23.018Z,989.53
2016-02-08T05:40:23.006Z,989.56
2016-02-08T05:41:23.024Z,989.53
2016-02-08T05:42:23.044Z,989.49
2016-02-08T05:43:23.064Z,989.49
2016-02-08T05:44:23.082Z,989.45
2016-02-08T05:45:23.101Z,989.47
2016-02-08T05:46:23.119Z,989.41
2016-02-08T05:47:23.137Z,989.45
2016-02-08T05:48:23.156Z,989.4
2016-02-08T05:49:23.174Z,989.41
2016-02-08T05:50:23.191Z,989.35
2016-02-08T05:51:23.211Z,989.31
2016-02-08T05:52:23.228Z,989.29
2016-02-08T05:53:23.247Z,989.31
2016-02-08T05:54:23.266Z,989.26
2016-02-08T05:55:23.283Z,989.33
2016-02-08T05:56:23.302Z,989.25
2016-02-08T05:57:23.305Z,989.15
2016-02-08T05:58:23.323Z,989.14
2016-02-08T05:59:23.388Z,989.13
2016-02-08T06:00:23.360Z,989.14
2016-02-08T06:01:23.377Z,989.06
2016-02-08T06:02:23.398Z,989.04
2016-02-08T06:03:23.416Z,989.11
2016-02-08T06:04:23.433Z,989.07
2016-02-08T06:05:23.453Z,989.1
2016-02-08T06:06:23.471Z,989.05
2016-02-08T06:07:23.488Z,989.1
2016-02-08T06:08:23.507Z,989.05
2016-02-08T06:09:23.525Z,989.12
2016-02-08T06:10:23.544Z,989.07
2016-02-08T06:11:23.562Z,989.03
2016-02-08T06:12:23.580Z,989.04
2016-02-08T06:13:23.601Z,989.02
2016-02-08T06:14:23.605Z,989.09
2016-02-08T06:15:23.623Z,989.19
2016-02-08T06:16:23.658Z,989.11
2016-02-08T06:17:23.676Z,989.17
2016-02-08T06:18:23.678Z,989.17
2016-02-08T06:19:23.697Z,989.11
2016-02-08T06:20:23.716Z,989.07
2016-02-08T06:21:23.733Z,989.11
2016-02-08T06:22:23.752Z,989.1
2016-02-08T06:23:23.770Z,989.11
2016-02-08T06:24:23.790Z,989.1
2016-02-08T06:25:23.808Z,989.1
2016-02-08T06:26:23.825Z,989.02
2016-02-08T06:27:23.845Z,989.03
2016-02-08T06:28:23.863Z,989.09
2016-02-08T06:29:23.883Z,989.05
2016-02-08T06:30:23.902Z,989.04
2016-02-08T06:31:23.919Z,988.99
2016-02-08T06:32:23.938Z,988.91
2016-02-08T06:33:23.957Z,988.82
2016-02-08T06:34:23.959Z,988.81
2016-02-08T06:35:23.977Z,988.75
2016-02-08T06:36:23.996Z,988.77
2016-02-08T06:37:24.018Z,988.73
2016-02-08T06:38:24.037Z,988.69
2016-02-08T06:39:24.056Z,988.68
2016-02-08T06:40:24.073Z,988.72
2016-02-08T06:41:24.092Z,988.7
2016-02-08T06:42:24.110Z,988.69
2016-02-08T06:43:24.129Z,988.62
2016-02-08T06:44:24.149Z,988.63
2016-02-08T06:45:24.168Z,988.61
2016-02-08T06:46:24.170Z,988.62
2016-02-08T06:47:24.205Z,988.63
2016-02-08T06:48:24.223Z,988.63
2016-02-08T06:49:24.225Z,988.62
2016-02-08T06:50:24.246Z,988.57
2016-02-08T06:51:24.264Z,988.51
2016-02-08T06:52:24.283Z,988.56
2016-02-08T06:53:24.301Z,988.57
2016-02-08T06:54:24.319Z,988.55
2016-02-08T06:55:24.338Z,988.56
2016-02-08T06:56:24.356Z,988.42
2016-02-08T06:57:24.374Z,988.49
2016-02-08T06:58:24.395Z,988.37
2016-02-08T06:59:24.412Z,988.4
2016-02-08T07:00:24.431Z,988.31
2016-02-08T07:01:24.450Z,988.28
2016-02-08T07:02:24.467Z,988.32
2016-02-08T07:03:24.487Z,988.15
2016-02-08T07:04:24.505Z,988.16
2016-02-08T07:05:24.523Z,988.14
2016-02-08T07:06:24.531Z,988.17
2016-02-08T07:07:24.549Z,988.21
2016-02-08T07:08:24.566Z,988.19
2016-02-08T07:09:24.586Z,988.12
2016-02-08T07:10:24.603Z,988.14
2016-02-08T07:11:24.622Z,988.1
2016-02-08T07:12:24.641Z,988.11
2016-02-08T07:13:24.659Z,988.17
2016-02-08T07:14:24.678Z,988.25
2016-02-08T07:15:24.698Z,988.22
2016-02-08T07:16:24.716Z,988.22
2016-02-08T07:17:24.735Z,988.24
2016-02-08T07:18:24.752Z,988.29
2016-02-08T07:19:24.771Z,988.35
2016-02-08T07:20:24.790Z,988.3
2016-02-08T07:21:24.808Z,988.24
2016-02-08T07:22:24.810Z,988.12
2016-02-08T07:23:24.829Z,988.09
2016-02-08T07:24:24.848Z,988.16
2016-02-08T07:25:24.867Z,988.07
2016-02-08T07:26:24.885Z,987.99
2016-02-08T07:27:24.902Z,987.99
2016-02-08T07:28:24.922Z,987.92
2016-02-08T07:29:24.940Z,987.87
2016-02-08T07:30:24.957Z,987.88
2016-02-08T07:31:24.977Z,987.83
2016-02-08T07:32:24.994Z,987.83
2016-02-08T07:33:25.013Z,987.74
2016-02-08T07:34:25.032Z,987.64
2016-02-08T07:35:25.049Z,987.7
2016-02-08T07:36:25.068Z,987.67
2016-02-08T07:37:25.087Z,987.69
2016-02-08T07:38:25.105Z,987.68
2016-02-08T07:39:25.124Z,987.55
2016-02-08T07:40:25.142Z,987.48
2016-02-08T07:41:25.162Z,987.49
2016-02-08T07:42:25.181Z,987.39
2016-02-08T07:43:25.199Z,987.45
2016-02-08T07:44:25.203Z,987.53
2016-02-08T07:45:25.269Z,987.52
2016-02-08T07:46:25.245Z,987.49
2016-02-08T07:47:25.263Z,987.45
2016-02-08T07:48:25.282Z,987.45
2016-02-08T07:49:25.300Z,987.54
2016-02-08T07:50:25.319Z,987.35
2016-02-08T07:51:25.337Z,987.42
2016-02-08T07:52:25.354Z,987.32
2016-02-08T07:53:25.374Z,987.26
2016-02-08T07:54:25.391Z,987.19
2016-02-08T07:55:25.410Z,987.22
2016-02-08T07:56:25.429Z,987.04
2016-02-08T07:57:25.446Z,987.02
2016-02-08T07:58:25.465Z,987
2016-02-08T07:59:25.484Z,987.01
2016-02-08T08:00:25.487Z,987.11
2016-02-08T08:01:25.507Z,987.01
2016-02-08T08:02:25.525Z,987.02
2016-02-08T08:03:25.542Z,987.04
2016-02-08T08:04:25.562Z,986.81
2016-02-08T08:05:25.580Z,986.86
2016-02-08T08:06:25.597Z,986.87
2016-02-08T08:07:25.616Z,986.78
2016-02-08T08:08:25.634Z,986.8
2016-02-08T08:09:25.653Z,986.65
2016-02-08T08:10:25.671Z,986.72
2016-02-08T08:11:25.689Z,986.84
2016-02-08T08:12:25.708Z,986.72
2016-02-08T08:13:25.730Z,986.67
2016-02-08T08:14:25.750Z,986.68
2016-02-08T08:15:25.768Z,986.48
2016-02-08T08:16:25.785Z,986.69
2016-02-08T08:17:25.804Z,986.59
2016-02-08T08:18:25.823Z,986.69
2016-02-08T08:19:25.840Z,986.62
2016-02-08T08:20:25.859Z,986.49
2016-02-08T08:21:25.878Z,986.62
2016-02-08T08:22:25.896Z,986.67
2016-02-08T08:23:25.916Z,986.79
2016-02-08T08:24:25.933Z,986.84
2016-02-08T08:25:25.951Z,986.88
2016-02-08T08:26:25.971Z,986.93
2016-02-08T08:27:26.005Z,986.8
2016-02-08T08:28:25.991Z,986.8
2016-02-08T08:29:26.014Z,986.9
2016-02-08T08:30:26.047Z,986.92
2016-02-08T08:31:26.050Z,986.91
2016-02-08T08:32:26.068Z,986.99
2016-02-08T08:33:26.086Z,986.87
2016-02-08T08:34:26.105Z,986.89
2016-02-08T08:35:26.123Z,986.87
2016-02-08T08:36:26.143Z,986.88
2016-02-08T08:37:26.161Z,986.82
2016-02-08T08:38:26.178Z,986.89
2016-02-08T08:39:26.198Z,986.86
2016-02-08T08:40:26.216Z,986.78
2016-02-08T08:41:26.233Z,986.87
2016-02-08T08:42:26.254Z,986.86
2016-02-08T08:43:26.271Z,986.78
2016-02-08T08:44:26.290Z,986.69
2016-02-08T08:45:26.308Z,986.72
2016-02-08T08:46:26.326Z,986.6
2016-02-08T08:47:26.345Z,986.54
2016-02-08T08:48:26.364Z,986.45
2016-02-08T08:49:26.382Z,986.46
2016-02-08T08:50:26.401Z,986.35
2016-02-08T08:51:26.419Z,986.37
2016-02-08T08:52:26.439Z,986.39
2016-02-08T08:53:26.457Z,986.18
2016-02-08T08:54:26.474Z,986.16
2016-02-08T08:55:26.494Z,986.17
2016-02-08T08:56:26.512Z,986.13
2016-02-08T08:57:26.531Z,986.03
2016-02-08T08:58:26.549Z,985.97
2016-02-08T08:59:26.567Z,985.99
2016-02-08T09:00:26.586Z,986.12
2016-02-08T09:01:26.605Z,986.01
2016-02-08T09:02:26.623Z,985.93
2016-02-08T09:03:26.642Z,985.95
2016-02-08T09:04:26.664Z,986.08
2016-02-08T09:05:26.666Z,986.02
2016-02-08T09:06:26.685Z,986.05
2016-02-08T09:07:26.704Z,986.01
2016-02-08T09:08:26.737Z,986.03
2016-02-08T09:09:26.740Z,986.15
2016-02-08T09:10:26.758Z,986.1
2016-02-08T09:11:26.796Z,986.12
2016-02-08T09:12:26.799Z,986.14
2016-02-08T09:13:26.816Z,986.2
2016-02-08T09:14:26.837Z,986.27
2016-02-08T09:15:26.870Z,986.35
2016-02-08T09:16:26.872Z,986.41
2016-02-08T09:17:26.892Z,986.33
2016-02-08T09:18:26.910Z,986.36
2016-02-08T09:19:26.929Z,986.34
2016-02-08T09:20:26.950Z,986.3
2016-02-08T09:21:26.968Z,986.32
2016-02-08T09:22:26.987Z,986.22
2016-02-08T09:23:27.004Z,986.21
2016-02-08T09:24:27.024Z,986.3
2016-02-08T09:25:27.042Z,986.38
2016-02-08T09:26:27.059Z,986.32
2016-02-08T09:27:27.095Z,986.35
2016-02-08T09:28:27.097Z,986.25
2016-02-08T09:29:27.114Z,986.34
2016-02-08T09:30:27.134Z,986.1
2016-02-08T09:31:27.151Z,986.14
2016-02-08T09:32:27.170Z,986.22
2016-02-08T09:33:27.189Z,986.22
2016-02-08T09:34:27.206Z,986.12
2016-02-08T09:35:27.225Z,986.19
2016-02-08T09:36:27.243Z,986.13
2016-02-08T09:37:27.261Z,986.14
2016-02-08T09:38:27.280Z,986.17
2016-02-08T09:39:27.298Z,986.13
2016-02-08T09:40:27.318Z,986.17
2016-02-08T09:41:27.336Z,986.2
2016-02-08T09:42:27.353Z,986.21
2016-02-08T09:43:27.373Z,986.12
2016-02-08T09:44:27.391Z,986.11
2016-02-08T09:45:27.411Z,986.12
2016-02-08T09:46:27.430Z,986.11
2016-02-08T09:47:27.447Z,986.09
2016-02-08T09:48:27.466Z,986.15
2016-02-08T09:49:27.484Z,986.13
2016-02-08T09:50:27.518Z,986.15
2016-02-08T09:51:27.536Z,986.11
2016-02-08T09:52:27.538Z,986.16
2016-02-08T09:53:27.560Z,986.09
2016-02-08T09:54:27.578Z,986.11
2016-02-08T09:55:27.595Z,986.03
2016-02-08T09:56:27.615Z,986.07
2016-02-08T09:57:27.648Z,986.03
2016-02-08T09:58:27.650Z,985.99
2016-02-08T09:59:27.685Z,986.07
2016-02-08T10:00:27.687Z,985.95
2016-02-08T10:01:27.722Z,985.8
2016-02-08T10:02:27.740Z,985.8
2016-02-08T10:03:27.758Z,985.77
2016-02-08T10:04:27.777Z,985.79
2016-02-08T10:05:27.794Z,985.79
2016-02-08T10:06:27.819Z,985.79
2016-02-08T10:07:27.836Z,985.75
2016-02-08T10:08:27.855Z,985.71
2016-02-08T10:09:27.874Z,985.6
2016-02-08T10:10:27.892Z,985.66
2016-02-08T10:11:27.911Z,985.67
2016-02-08T10:12:27.928Z,985.64
2016-02-08T10:13:27.947Z,985.63
2016-02-08T10:14:27.968Z,985.66
2016-02-08T10:15:27.985Z,985.66
2016-02-08T10:16:28.004Z,985.67
2016-02-08T10:17:28.022Z,985.67
2016-02-08T10:18:28.041Z,985.63
2016-02-08T10:19:28.075Z,985.61
2016-02-08T10:20:28.078Z,985.62
2016-02-08T10:21:28.113Z,985.63
2016-02-08T10:22:28.116Z,985.67
2016-02-08T10:23:28.133Z,985.65
2016-02-08T10:24:28.152Z,985.62
2016-02-08T10:25:28.170Z,985.58
2016-02-08T10:26:28.188Z,985.6
2016-02-08T10:27:28.207Z,985.6
2016-02-08T10:28:28.241Z,985.58
2016-02-08T10:29:28.244Z,985.57
2016-02-08T10:30:28.277Z,985.6
2016-02-08T10:31:28.297Z,985.52
2016-02-08T10:32:28.314Z,985.44
2016-02-08T10:33:28.333Z,985.38
2016-02-08T10:34:28.352Z,985.25
2016-02-08T10:35:28.369Z,985.29
2016-02-08T10:36:28.388Z,985.21
2016-02-08T10:37:28.407Z,985.18
2016-02-08T10:38:28.424Z,985.18
2016-02-08T10:39:28.458Z,985.18
2016-02-08T10:40:28.461Z,985.11
2016-02-08T10:41:28.481Z,985.14
2016-02-08T10:42:28.500Z,985.13
2016-02-08T10:43:28.517Z,985.14
2016-02-08T10:44:28.537Z,985.06
2016-02-08T10:45:28.570Z,985.11
2016-02-08T10:46:28.589Z,985.06
2016-02-08T10:47:28.606Z,985.1
2016-02-08T10:48:28.626Z,985.06
2016-02-08T10:49:28.644Z,985.04
2016-02-08T10:50:28.677Z,984.99
2016-02-08T10:51:28.680Z,985.07
2016-02-08T10:52:28.699Z,985.06
2016-02-08T10:53:28.716Z,984.95
2016-02-08T10:54:28.735Z,984.91
2016-02-08T10:55:28.752Z,984.88
2016-02-08T10:56:28.788Z,984.97
2016-02-08T10:57:28.805Z,984.93
2016-02-08T10:58:28.824Z,984.94
2016-02-08T10:59:28.843Z,984.76
2016-02-08T11:00:28.860Z,984.89
2016-02-08T11:01:28.879Z,984.89
2016-02-08T11:02:28.897Z,984.92
2016-02-08T11:03:28.917Z,984.86
2016-02-08T11:04:28.935Z,984.87
2016-02-08T11:05:28.952Z,984.89
2016-02-08T11:06:28.972Z,984.92
2016-02-08T11:07:28.989Z,984.93
2016-02-08T11:08:29.011Z,984.9
2016-02-08T11:09:29.045Z,984.86
2016-02-08T11:10:29.064Z,984.83
2016-02-08T11:11:29.070Z,984.85
2016-02-08T11:12:29.103Z,984.75
2016-02-08T11:13:29.122Z,984.73
2016-02-08T11:14:29.140Z,984.67
2016-02-08T11:15:29.159Z,984.72
2016-02-08T11:16:29.178Z,984.59
2016-02-08T11:17:29.196Z,984.59
2016-02-08T11:18:29.215Z,984.6
2016-02-08T11:19:29.232Z,984.54
2016-02-08T11:20:29.252Z,984.5
2016-02-08T11:21:29.285Z,984.57
2016-02-08T11:22:29.304Z,984.56
2016-02-08T11:23:29.323Z,984.43
2016-02-08T11:24:29.341Z,984.46
2016-02-08T11:25:29.361Z,984.42
2016-02-08T11:26:29.378Z,984.36
2016-02-08T11:27:29.397Z,984.34
2016-02-08T11:28:29.416Z,984.21
2016-02-08T11:29:29.433Z,984.26
2016-02-08T11:30:29.456Z,984.19
2016-02-08T11:31:29.474Z,984.21
2016-02-08T11:32:29.509Z,984.18
2016-02-08T11:33:29.526Z,984.06
2016-02-08T11:34:29.545Z,984.17
2016-02-08T11:35:29.563Z,984.14
2016-02-08T11:36:29.581Z,984.23
2016-02-08T11:37:29.604Z,984.21
2016-02-08T11:38:29.625Z,984.23
2016-02-08T11:39:29.644Z,984.23
2016-02-08T11:40:29.662Z,984.2
2016-02-08T11:41:29.681Z,984.22
2016-02-08T11:42:29.699Z,984.13
2016-02-08T11:43:29.735Z,984.18
2016-02-08T11:44:29.754Z,984.15
2016-02-08T11:45:29.771Z,984.09
2016-02-08T11:46:29.791Z,984.07
2016-02-08T11:47:29.825Z,984.07
2016-02-08T11:48:29.844Z,984.1
2016-02-08T11:49:29.861Z,984.04
2016-02-08T11:50:29.896Z,984
2016-02-08T11:51:29.884Z,984.04
2016-02-08T11:52:29.917Z,984.07
2016-02-08T11:53:29.936Z,983.84
2016-02-08T11:54:29.953Z,983.99
2016-02-08T11:55:29.989Z,983.9
2016-02-08T11:56:30.006Z,983.86
2016-02-08T11:57:30.029Z,983.83
2016-02-08T11:58:30.047Z,983.87
2016-02-08T11:59:30.069Z,983.85
2016-02-08T12:00:30.088Z,983.81
2016-02-08T12:01:30.105Z,983.8
2016-02-08T12:02:30.124Z,983.7
2016-02-08T12:03:30.158Z,983.73
2016-02-08T12:04:30.177Z,983.63
2016-02-08T12:05:30.195Z,983.74
2016-02-08T12:06:30.214Z,983.82
2016-02-08T12:07:30.237Z,983.72
2016-02-08T12:08:30.255Z,983.71
2016-02-08T12:09:30.274Z,983.76
2016-02-08T12:10:30.291Z,983.8
2016-02-08T12:11:30.342Z,983.78
2016-02-08T12:12:30.344Z,983.84
2016-02-08T12:13:30.363Z,983.84
2016-02-08T12:14:30.382Z,983.83
2016-02-08T12:15:30.416Z,983.83
2016-02-08T12:16:30.434Z,983.84
2016-02-08T12:17:30.452Z,983.86
2016-02-08T12:18:30.471Z,983.93
2016-02-08T12:19:30.489Z,983.88
2016-02-08T12:20:30.508Z,983.92
2016-02-08T12:21:30.541Z,983.92
2016-02-08T12:22:30.544Z,983.92
2016-02-08T12:23:30.563Z,983.9
2016-02-08T12:24:30.596Z,983.84
2016-02-08T12:25:30.615Z,983.96
2016-02-08T12:26:30.634Z,983.76
2016-02-08T12:27:30.652Z,983.76
2016-02-08T12:28:30.670Z,983.71
2016-02-08T12:29:30.689Z,983.74
2016-02-08T12:30:30.722Z,983.75
2016-02-08T12:31:30.741Z,983.75